sensor_id;sensor_type;location;lat;lon;timestamp;P1;durP1;ratioP1;P2;durP2;ratioP2
78167;SDS011;67410;42.698;23.378;2023-12-28T00:00:51;140.80;;;61.00;;
78167;SDS011;67410;42.698;23.378;2023-12-28T00:03:18;137.32;;;60.53;;
78167;SDS011;67410;42.698;23.378;2023-12-28T00:05:44;146.55;;;65.95;;
78167;SDS011;67410;42.698;23.378;2023-12-28T00:08:10;139.15;;;62.22;;
78167;SDS011;67410;42.698;23.378;2023-12-28T00:10:36;134.60;;;63.22;;
78167;SDS011;67410;42.698;23.378;2023-12-28T00:13:03;125.03;;;59.85;;
78167;SDS011;67410;42.698;23.378;2023-12-28T00:15:29;121.68;;;56.20;;
78167;SDS011;67410;42.698;23.378;2023-12-28T00:17:55;119.82;;;55.70;;
78167;SDS011;67410;42.698;23.378;2023-12-28T00:20:21;108.90;;;51.70;;
78167;SDS011;67410;42.698;23.378;2023-12-28T00:22:47;121.45;;;56.78;;
78167;SDS011;67410;42.698;23.378;2023-12-28T00:25:14;126.78;;;57.22;;
78167;SDS011;67410;42.698;23.378;2023-12-28T00:27:40;134.00;;;62.28;;
78167;SDS011;67410;42.698;23.378;2023-12-28T00:30:06;150.80;;;71.00;;
78167;SDS011;67410;42.698;23.378;2023-12-28T00:32:32;125.13;;;59.47;;
78167;SDS011;67410;42.698;23.378;2023-12-28T00:34:58;131.40;;;61.45;;
78167;SDS011;67410;42.698;23.378;2023-12-28T00:37:24;132.38;;;61.53;;
78167;SDS011;67410;42.698;23.378;2023-12-28T00:39:50;122.53;;;55.55;;
78167;SDS011;67410;42.698;23.378;2023-12-28T00:42:17;129.85;;;57.35;;
78167;SDS011;67410;42.698;23.378;2023-12-28T00:44:45;114.85;;;53.17;;
78167;SDS011;67410;42.698;23.378;2023-12-28T00:47:11;112.43;;;54.00;;
78167;SDS011;67410;42.698;23.378;2023-12-28T00:49:37;116.25;;;53.28;;
78167;SDS011;67410;42.698;23.378;2023-12-28T00:52:03;119.80;;;53.60;;
78167;SDS011;67410;42.698;23.378;2023-12-28T00:54:30;123.57;;;54.92;;
78167;SDS011;67410;42.698;23.378;2023-12-28T00:56:56;124.90;;;54.55;;
78167;SDS011;67410;42.698;23.378;2023-12-28T00:59:23;119.28;;;56.80;;
78167;SDS011;67410;42.698;23.378;2023-12-28T01:01:49;123.43;;;54.13;;
78167;SDS011;67410;42.698;23.378;2023-12-28T01:04:16;104.18;;;53.63;;
78167;SDS011;67410;42.698;23.378;2023-12-28T01:06:43;110.63;;;50.47;;
78167;SDS011;67410;42.698;23.378;2023-12-28T01:09:09;105.82;;;52.90;;
78167;SDS011;67410;42.698;23.378;2023-12-28T01:11:35;119.13;;;56.55;;
78167;SDS011;67410;42.698;23.378;2023-12-28T01:14:01;126.82;;;57.83;;
78167;SDS011;67410;42.698;23.378;2023-12-28T01:16:28;110.53;;;53.13;;
78167;SDS011;67410;42.698;23.378;2023-12-28T01:18:55;111.88;;;51.67;;
78167;SDS011;67410;42.698;23.378;2023-12-28T01:21:21;109.45;;;51.33;;
78167;SDS011;67410;42.698;23.378;2023-12-28T01:23:48;106.22;;;51.35;;
78167;SDS011;67410;42.698;23.378;2023-12-28T01:26:14;113.90;;;52.63;;
78167;SDS011;67410;42.698;23.378;2023-12-28T01:28:41;108.10;;;53.67;;
78167;SDS011;67410;42.698;23.378;2023-12-28T01:31:10;111.72;;;51.08;;
78167;SDS011;67410;42.698;23.378;2023-12-28T01:33:36;98.70;;;47.25;;
78167;SDS011;67410;42.698;23.378;2023-12-28T01:36:03;118.13;;;53.03;;
78167;SDS011;67410;42.698;23.378;2023-12-28T01:38:40;114.00;;;51.42;;
78167;SDS011;67410;42.698;23.378;2023-12-28T01:41:06;109.78;;;52.72;;
78167;SDS011;67410;42.698;23.378;2023-12-28T01:43:33;108.28;;;52.58;;
78167;SDS011;67410;42.698;23.378;2023-12-28T01:45:59;109.72;;;50.17;;
78167;SDS011;67410;42.698;23.378;2023-12-28T01:48:26;107.70;;;50.65;;
78167;SDS011;67410;42.698;23.378;2023-12-28T01:50:53;109.20;;;51.05;;
78167;SDS011;67410;42.698;23.378;2023-12-28T01:53:20;90.47;;;42.92;;
78167;SDS011;67410;42.698;23.378;2023-12-28T01:55:46;73.30;;;33.63;;
78167;SDS011;67410;42.698;23.378;2023-12-28T01:58:12;72.10;;;30.77;;
78167;SDS011;67410;42.698;23.378;2023-12-28T02:00:38;67.82;;;29.08;;
78167;SDS011;67410;42.698;23.378;2023-12-28T02:03:06;73.35;;;32.05;;
78167;SDS011;67410;42.698;23.378;2023-12-28T02:05:33;73.28;;;34.30;;
78167;SDS011;67410;42.698;23.378;2023-12-28T02:07:59;71.18;;;34.65;;
78167;SDS011;67410;42.698;23.378;2023-12-28T02:10:26;75.90;;;32.78;;
78167;SDS011;67410;42.698;23.378;2023-12-28T02:12:54;56.13;;;25.38;;
78167;SDS011;67410;42.698;23.378;2023-12-28T02:15:21;71.70;;;30.17;;
78167;SDS011;67410;42.698;23.378;2023-12-28T02:18:09;60.50;;;28.85;;
78167;SDS011;67410;42.698;23.378;2023-12-28T02:20:41;59.60;;;29.30;;
78167;SDS011;67410;42.698;23.378;2023-12-28T02:23:09;59.83;;;28.63;;
78167;SDS011;67410;42.698;23.378;2023-12-28T02:25:35;55.40;;;26.92;;
78167;SDS011;67410;42.698;23.378;2023-12-28T02:28:02;61.97;;;26.98;;
78167;SDS011;67410;42.698;23.378;2023-12-28T02:30:28;53.85;;;26.23;;
78167;SDS011;67410;42.698;23.378;2023-12-28T02:35:32;52.88;;;25.67;;
78167;SDS011;67410;42.698;23.378;2023-12-28T02:38:02;51.03;;;24.80;;
78167;SDS011;67410;42.698;23.378;2023-12-28T02:40:33;49.08;;;23.20;;
78167;SDS011;67410;42.698;23.378;2023-12-28T02:43:04;46.65;;;22.60;;
78167;SDS011;67410;42.698;23.378;2023-12-28T02:45:31;43.17;;;21.45;;
78167;SDS011;67410;42.698;23.378;2023-12-28T02:47:58;40.67;;;21.38;;
78167;SDS011;67410;42.698;23.378;2023-12-28T02:50:24;40.78;;;19.80;;
78167;SDS011;67410;42.698;23.378;2023-12-28T02:52:50;38.08;;;19.38;;
78167;SDS011;67410;42.698;23.378;2023-12-28T02:55:16;47.85;;;21.00;;
78167;SDS011;67410;42.698;23.378;2023-12-28T02:57:43;44.83;;;20.40;;
78167;SDS011;67410;42.698;23.378;2023-12-28T03:00:10;49.03;;;20.20;;
78167;SDS011;67410;42.698;23.378;2023-12-28T03:02:36;39.97;;;18.25;;
78167;SDS011;67410;42.698;23.378;2023-12-28T03:05:06;40.33;;;19.52;;
78167;SDS011;67410;42.698;23.378;2023-12-28T03:07:33;45.33;;;19.73;;
78167;SDS011;67410;42.698;23.378;2023-12-28T03:10:00;36.20;;;17.92;;
78167;SDS011;67410;42.698;23.378;2023-12-28T03:12:26;37.67;;;18.85;;
78167;SDS011;67410;42.698;23.378;2023-12-28T03:14:53;40.33;;;19.25;;
78167;SDS011;67410;42.698;23.378;2023-12-28T03:17:19;40.72;;;19.15;;
78167;SDS011;67410;42.698;23.378;2023-12-28T03:19:45;37.40;;;18.58;;
78167;SDS011;67410;42.698;23.378;2023-12-28T03:22:12;40.72;;;21.10;;
78167;SDS011;67410;42.698;23.378;2023-12-28T03:24:39;40.75;;;20.45;;
78167;SDS011;67410;42.698;23.378;2023-12-28T03:27:06;42.75;;;20.98;;
78167;SDS011;67410;42.698;23.378;2023-12-28T03:29:33;39.83;;;18.63;;
78167;SDS011;67410;42.698;23.378;2023-12-28T03:31:59;37.08;;;19.05;;
78167;SDS011;67410;42.698;23.378;2023-12-28T03:34:26;47.42;;;20.80;;
78167;SDS011;67410;42.698;23.378;2023-12-28T03:36:54;40.90;;;22.05;;
78167;SDS011;67410;42.698;23.378;2023-12-28T03:39:21;46.45;;;22.30;;
78167;SDS011;67410;42.698;23.378;2023-12-28T03:41:47;44.55;;;22.60;;
78167;SDS011;67410;42.698;23.378;2023-12-28T03:44:13;55.17;;;22.45;;
78167;SDS011;67410;42.698;23.378;2023-12-28T03:46:39;45.22;;;22.77;;
78167;SDS011;67410;42.698;23.378;2023-12-28T03:49:05;61.95;;;24.33;;
78167;SDS011;67410;42.698;23.378;2023-12-28T03:51:31;48.67;;;22.92;;
78167;SDS011;67410;42.698;23.378;2023-12-28T03:53:58;50.45;;;24.15;;
78167;SDS011;67410;42.698;23.378;2023-12-28T03:56:24;50.53;;;23.52;;
78167;SDS011;67410;42.698;23.378;2023-12-28T03:58:52;61.35;;;25.52;;
78167;SDS011;67410;42.698;23.378;2023-12-28T04:01:19;48.47;;;23.65;;
78167;SDS011;67410;42.698;23.378;2023-12-28T04:03:47;65.88;;;26.48;;
78167;SDS011;67410;42.698;23.378;2023-12-28T04:06:13;59.63;;;27.98;;
78167;SDS011;67410;42.698;23.378;2023-12-28T04:08:43;78.70;;;34.60;;
78167;SDS011;67410;42.698;23.378;2023-12-28T04:11:10;65.72;;;30.33;;
78167;SDS011;67410;42.698;23.378;2023-12-28T04:13:36;58.85;;;25.90;;
78167;SDS011;67410;42.698;23.378;2023-12-28T04:16:02;56.72;;;24.98;;
78167;SDS011;67410;42.698;23.378;2023-12-28T04:18:29;46.13;;;22.48;;
78167;SDS011;67410;42.698;23.378;2023-12-28T04:20:55;62.78;;;27.77;;
78167;SDS011;67410;42.698;23.378;2023-12-28T04:23:21;47.90;;;23.48;;
78167;SDS011;67410;42.698;23.378;2023-12-28T04:25:47;49.63;;;22.95;;
78167;SDS011;67410;42.698;23.378;2023-12-28T04:28:14;56.95;;;25.35;;
78167;SDS011;67410;42.698;23.378;2023-12-28T04:30:40;61.97;;;27.27;;
78167;SDS011;67410;42.698;23.378;2023-12-28T04:33:06;51.50;;;23.90;;
78167;SDS011;67410;42.698;23.378;2023-12-28T04:35:32;55.83;;;24.48;;
78167;SDS011;67410;42.698;23.378;2023-12-28T04:37:58;61.95;;;27.98;;
78167;SDS011;67410;42.698;23.378;2023-12-28T04:40:24;57.65;;;24.75;;
78167;SDS011;67410;42.698;23.378;2023-12-28T04:42:50;68.40;;;27.48;;
78167;SDS011;67410;42.698;23.378;2023-12-28T04:45:16;61.83;;;26.25;;
78167;SDS011;67410;42.698;23.378;2023-12-28T04:47:43;56.80;;;25.70;;
78167;SDS011;67410;42.698;23.378;2023-12-28T04:50:09;58.80;;;28.33;;
78167;SDS011;67410;42.698;23.378;2023-12-28T04:52:37;62.95;;;26.25;;
78167;SDS011;67410;42.698;23.378;2023-12-28T04:55:03;50.97;;;25.13;;
78167;SDS011;67410;42.698;23.378;2023-12-28T04:57:30;56.58;;;27.33;;
78167;SDS011;67410;42.698;23.378;2023-12-28T04:59:57;58.92;;;26.08;;
78167;SDS011;67410;42.698;23.378;2023-12-28T05:02:23;53.92;;;24.25;;
78167;SDS011;67410;42.698;23.378;2023-12-28T05:04:49;68.82;;;28.45;;
78167;SDS011;67410;42.698;23.378;2023-12-28T05:07:15;53.42;;;27.42;;
78167;SDS011;67410;42.698;23.378;2023-12-28T05:09:41;62.60;;;29.10;;
78167;SDS011;67410;42.698;23.378;2023-12-28T05:12:07;62.20;;;28.92;;
78167;SDS011;67410;42.698;23.378;2023-12-28T05:14:33;55.45;;;27.70;;
78167;SDS011;67410;42.698;23.378;2023-12-28T05:16:59;95.90;;;37.92;;
78167;SDS011;67410;42.698;23.378;2023-12-28T05:19:25;90.30;;;40.35;;
78167;SDS011;67410;42.698;23.378;2023-12-28T05:21:51;119.50;;;50.45;;
78167;SDS011;67410;42.698;23.378;2023-12-28T05:24:17;133.30;;;57.00;;
78167;SDS011;67410;42.698;23.378;2023-12-28T05:26:43;101.32;;;43.63;;
78167;SDS011;67410;42.698;23.378;2023-12-28T05:29:09;84.80;;;37.63;;
78167;SDS011;67410;42.698;23.378;2023-12-28T05:31:35;81.10;;;36.22;;
78167;SDS011;67410;42.698;23.378;2023-12-28T05:34:01;80.55;;;38.45;;
78167;SDS011;67410;42.698;23.378;2023-12-28T05:36:28;95.68;;;42.17;;
78167;SDS011;67410;42.698;23.378;2023-12-28T05:38:54;95.53;;;43.33;;
78167;SDS011;67410;42.698;23.378;2023-12-28T05:41:20;92.93;;;41.30;;
78167;SDS011;67410;42.698;23.378;2023-12-28T05:43:46;101.93;;;43.65;;
78167;SDS011;67410;42.698;23.378;2023-12-28T05:46:12;94.35;;;40.92;;
78167;SDS011;67410;42.698;23.378;2023-12-28T05:48:39;79.80;;;39.75;;
78167;SDS011;67410;42.698;23.378;2023-12-28T05:51:05;91.05;;;42.25;;
78167;SDS011;67410;42.698;23.378;2023-12-28T05:53:31;73.50;;;33.05;;
78167;SDS011;67410;42.698;23.378;2023-12-28T05:55:57;81.13;;;36.95;;
78167;SDS011;67410;42.698;23.378;2023-12-28T05:58:28;89.60;;;44.70;;
78167;SDS011;67410;42.698;23.378;2023-12-28T06:00:55;107.03;;;47.67;;
78167;SDS011;67410;42.698;23.378;2023-12-28T06:03:22;122.53;;;55.28;;
78167;SDS011;67410;42.698;23.378;2023-12-28T06:05:54;78.82;;;35.28;;
78167;SDS011;67410;42.698;23.378;2023-12-28T06:08:21;84.85;;;37.42;;
78167;SDS011;67410;42.698;23.378;2023-12-28T06:10:47;96.55;;;43.42;;
78167;SDS011;67410;42.698;23.378;2023-12-28T06:13:14;120.28;;;52.78;;
78167;SDS011;67410;42.698;23.378;2023-12-28T06:15:41;127.05;;;49.85;;
78167;SDS011;67410;42.698;23.378;2023-12-28T06:18:07;114.25;;;49.83;;
78167;SDS011;67410;42.698;23.378;2023-12-28T06:20:33;107.03;;;47.08;;
78167;SDS011;67410;42.698;23.378;2023-12-28T06:22:59;117.28;;;55.70;;
78167;SDS011;67410;42.698;23.378;2023-12-28T06:25:25;120.82;;;54.50;;
78167;SDS011;67410;42.698;23.378;2023-12-28T06:27:51;79.57;;;38.17;;
78167;SDS011;67410;42.698;23.378;2023-12-28T06:30:17;92.85;;;39.97;;
78167;SDS011;67410;42.698;23.378;2023-12-28T06:32:43;96.95;;;36.70;;
78167;SDS011;67410;42.698;23.378;2023-12-28T06:35:09;94.80;;;30.02;;
78167;SDS011;67410;42.698;23.378;2023-12-28T06:37:35;77.32;;;32.42;;
78167;SDS011;67410;42.698;23.378;2023-12-28T06:40:01;96.70;;;40.25;;
78167;SDS011;67410;42.698;23.378;2023-12-28T06:42:28;106.80;;;39.95;;
78167;SDS011;67410;42.698;23.378;2023-12-28T06:44:54;107.10;;;42.42;;
78167;SDS011;67410;42.698;23.378;2023-12-28T06:47:30;147.43;;;56.30;;
78167;SDS011;67410;42.698;23.378;2023-12-28T06:50:09;183.60;;;79.82;;
78167;SDS011;67410;42.698;23.378;2023-12-28T06:52:41;265.48;;;89.07;;
78167;SDS011;67410;42.698;23.378;2023-12-28T06:55:07;228.85;;;82.22;;
78167;SDS011;67410;42.698;23.378;2023-12-28T06:57:33;181.55;;;66.60;;
78167;SDS011;67410;42.698;23.378;2023-12-28T07:00:04;152.52;;;60.00;;
78167;SDS011;67410;42.698;23.378;2023-12-28T07:02:30;157.23;;;65.88;;
78167;SDS011;67410;42.698;23.378;2023-12-28T07:04:57;187.98;;;80.80;;
78167;SDS011;67410;42.698;23.378;2023-12-28T07:07:23;190.82;;;79.60;;
78167;SDS011;67410;42.698;23.378;2023-12-28T07:09:49;177.32;;;69.32;;
78167;SDS011;67410;42.698;23.378;2023-12-28T07:12:15;131.05;;;56.13;;
78167;SDS011;67410;42.698;23.378;2023-12-28T07:14:41;150.70;;;59.45;;
78167;SDS011;67410;42.698;23.378;2023-12-28T07:17:07;138.45;;;61.50;;
78167;SDS011;67410;42.698;23.378;2023-12-28T07:22:03;140.88;;;59.03;;
78167;SDS011;67410;42.698;23.378;2023-12-28T07:24:29;128.55;;;59.45;;
78167;SDS011;67410;42.698;23.378;2023-12-28T07:26:56;127.20;;;60.13;;
78167;SDS011;67410;42.698;23.378;2023-12-28T07:29:22;119.72;;;62.75;;
78167;SDS011;67410;42.698;23.378;2023-12-28T07:31:48;116.95;;;59.60;;
78167;SDS011;67410;42.698;23.378;2023-12-28T07:34:15;117.30;;;60.15;;
78167;SDS011;67410;42.698;23.378;2023-12-28T07:36:41;98.40;;;54.45;;
78167;SDS011;67410;42.698;23.378;2023-12-28T07:39:09;109.57;;;53.83;;
78167;SDS011;67410;42.698;23.378;2023-12-28T07:41:36;98.25;;;53.50;;
78167;SDS011;67410;42.698;23.378;2023-12-28T07:44:02;83.47;;;44.95;;
78167;SDS011;67410;42.698;23.378;2023-12-28T07:46:28;69.82;;;43.20;;
78167;SDS011;67410;42.698;23.378;2023-12-28T07:48:54;78.13;;;45.90;;
78167;SDS011;67410;42.698;23.378;2023-12-28T07:51:21;87.78;;;52.10;;
78167;SDS011;67410;42.698;23.378;2023-12-28T07:53:47;101.68;;;57.47;;
78167;SDS011;67410;42.698;23.378;2023-12-28T07:56:13;93.10;;;54.17;;
78167;SDS011;67410;42.698;23.378;2023-12-28T07:58:39;42.97;;;27.63;;
78167;SDS011;67410;42.698;23.378;2023-12-28T08:01:09;44.15;;;27.75;;
78167;SDS011;67410;42.698;23.378;2023-12-28T08:03:36;50.92;;;29.33;;
78167;SDS011;67410;42.698;23.378;2023-12-28T08:06:03;49.78;;;26.65;;
78167;SDS011;67410;42.698;23.378;2023-12-28T08:08:29;51.72;;;27.90;;
78167;SDS011;67410;42.698;23.378;2023-12-28T08:10:55;46.28;;;27.92;;
78167;SDS011;67410;42.698;23.378;2023-12-28T08:13:22;47.60;;;26.77;;
78167;SDS011;67410;42.698;23.378;2023-12-28T08:15:48;53.13;;;35.72;;
78167;SDS011;67410;42.698;23.378;2023-12-28T08:18:14;29.95;;;19.70;;
78167;SDS011;67410;42.698;23.378;2023-12-28T08:20:40;31.23;;;20.85;;
78167;SDS011;67410;42.698;23.378;2023-12-28T08:23:06;27.92;;;19.10;;
78167;SDS011;67410;42.698;23.378;2023-12-28T08:25:33;33.97;;;18.98;;
78167;SDS011;67410;42.698;23.378;2023-12-28T08:28:01;27.05;;;17.90;;
78167;SDS011;67410;42.698;23.378;2023-12-28T08:30:27;26.50;;;16.77;;
78167;SDS011;67410;42.698;23.378;2023-12-28T08:32:53;21.73;;;15.10;;
78167;SDS011;67410;42.698;23.378;2023-12-28T08:35:19;25.48;;;17.65;;
78167;SDS011;67410;42.698;23.378;2023-12-28T08:37:47;24.73;;;16.58;;
78167;SDS011;67410;42.698;23.378;2023-12-28T08:40:13;24.20;;;17.90;;
78167;SDS011;67410;42.698;23.378;2023-12-28T08:42:39;24.33;;;17.67;;
78167;SDS011;67410;42.698;23.378;2023-12-28T08:45:05;26.65;;;18.08;;
78167;SDS011;67410;42.698;23.378;2023-12-28T08:47:32;29.52;;;18.55;;
78167;SDS011;67410;42.698;23.378;2023-12-28T08:49:58;29.88;;;19.63;;
78167;SDS011;67410;42.698;23.378;2023-12-28T08:52:25;25.58;;;18.27;;
78167;SDS011;67410;42.698;23.378;2023-12-28T08:54:51;25.20;;;18.08;;
78167;SDS011;67410;42.698;23.378;2023-12-28T08:57:17;28.65;;;19.98;;
78167;SDS011;67410;42.698;23.378;2023-12-28T08:59:43;28.23;;;19.35;;
78167;SDS011;67410;42.698;23.378;2023-12-28T09:02:10;26.23;;;19.25;;
78167;SDS011;67410;42.698;23.378;2023-12-28T09:04:36;51.80;;;33.53;;
78167;SDS011;67410;42.698;23.378;2023-12-28T09:07:02;40.88;;;28.60;;
78167;SDS011;67410;42.698;23.378;2023-12-28T09:09:28;64.25;;;44.17;;
78167;SDS011;67410;42.698;23.378;2023-12-28T09:11:54;36.60;;;21.00;;
78167;SDS011;67410;42.698;23.378;2023-12-28T09:14:20;41.53;;;27.70;;
78167;SDS011;67410;42.698;23.378;2023-12-28T09:16:47;42.05;;;24.33;;
78167;SDS011;67410;42.698;23.378;2023-12-28T09:19:13;29.55;;;21.23;;
78167;SDS011;67410;42.698;23.378;2023-12-28T09:21:40;31.48;;;20.40;;
78167;SDS011;67410;42.698;23.378;2023-12-28T09:24:08;31.25;;;19.42;;
78167;SDS011;67410;42.698;23.378;2023-12-28T09:26:34;31.73;;;20.20;;
78167;SDS011;67410;42.698;23.378;2023-12-28T09:29:00;33.97;;;21.20;;
78167;SDS011;67410;42.698;23.378;2023-12-28T09:31:26;34.13;;;22.23;;
78167;SDS011;67410;42.698;23.378;2023-12-28T09:33:53;45.65;;;27.67;;
78167;SDS011;67410;42.698;23.378;2023-12-28T09:36:19;37.17;;;22.67;;
78167;SDS011;67410;42.698;23.378;2023-12-28T09:38:45;40.67;;;26.27;;
78167;SDS011;67410;42.698;23.378;2023-12-28T09:41:11;40.40;;;23.85;;
78167;SDS011;67410;42.698;23.378;2023-12-28T09:44:05;35.55;;;23.02;;
78167;SDS011;67410;42.698;23.378;2023-12-28T09:46:37;40.22;;;26.85;;
78167;SDS011;67410;42.698;23.378;2023-12-28T09:49:06;39.75;;;25.55;;
78167;SDS011;67410;42.698;23.378;2023-12-28T09:51:33;42.08;;;27.58;;
78167;SDS011;67410;42.698;23.378;2023-12-28T09:53:59;45.85;;;25.08;;
78167;SDS011;67410;42.698;23.378;2023-12-28T09:56:25;49.53;;;31.25;;
78167;SDS011;67410;42.698;23.378;2023-12-28T09:58:52;46.10;;;25.42;;
78167;SDS011;67410;42.698;23.378;2023-12-28T10:01:18;52.50;;;28.70;;
78167;SDS011;67410;42.698;23.378;2023-12-28T10:03:45;42.45;;;26.98;;
78167;SDS011;67410;42.698;23.378;2023-12-28T10:06:12;41.65;;;24.85;;
78167;SDS011;67410;42.698;23.378;2023-12-28T10:08:47;36.83;;;22.67;;
78167;SDS011;67410;42.698;23.378;2023-12-28T10:11:17;43.55;;;26.33;;
78167;SDS011;67410;42.698;23.378;2023-12-28T10:13:44;41.72;;;23.48;;
78167;SDS011;67410;42.698;23.378;2023-12-28T10:16:11;48.10;;;27.60;;
78167;SDS011;67410;42.698;23.378;2023-12-28T10:18:41;35.47;;;22.98;;
78167;SDS011;67410;42.698;23.378;2023-12-28T10:21:08;33.15;;;21.00;;
78167;SDS011;67410;42.698;23.378;2023-12-28T10:23:35;39.65;;;25.00;;
78167;SDS011;67410;42.698;23.378;2023-12-28T10:26:02;48.30;;;29.98;;
78167;SDS011;67410;42.698;23.378;2023-12-28T10:28:34;34.83;;;20.55;;
78167;SDS011;67410;42.698;23.378;2023-12-28T10:31:03;32.05;;;20.58;;
78167;SDS011;67410;42.698;23.378;2023-12-28T10:33:36;30.83;;;21.90;;
78167;SDS011;67410;42.698;23.378;2023-12-28T10:36:08;37.13;;;23.13;;
78167;SDS011;67410;42.698;23.378;2023-12-28T10:38:34;34.05;;;19.63;;
78167;SDS011;67410;42.698;23.378;2023-12-28T10:41:07;30.20;;;19.95;;
78167;SDS011;67410;42.698;23.378;2023-12-28T10:43:43;31.83;;;20.67;;
78167;SDS011;67410;42.698;23.378;2023-12-28T10:46:20;32.92;;;20.73;;
78167;SDS011;67410;42.698;23.378;2023-12-28T10:48:51;33.15;;;21.33;;
78167;SDS011;67410;42.698;23.378;2023-12-28T10:51:23;30.60;;;20.10;;
78167;SDS011;67410;42.698;23.378;2023-12-28T10:53:56;34.85;;;21.77;;
78167;SDS011;67410;42.698;23.378;2023-12-28T10:56:48;38.28;;;22.65;;
78167;SDS011;67410;42.698;23.378;2023-12-28T11:02:14;31.20;;;19.73;;
78167;SDS011;67410;42.698;23.378;2023-12-28T11:04:50;33.90;;;19.98;;
78167;SDS011;67410;42.698;23.378;2023-12-28T11:07:18;35.95;;;22.27;;
78167;SDS011;67410;42.698;23.378;2023-12-28T11:09:44;29.35;;;19.67;;
78167;SDS011;67410;42.698;23.378;2023-12-28T11:12:11;33.92;;;20.33;;
78167;SDS011;67410;42.698;23.378;2023-12-28T11:14:41;31.42;;;20.08;;
78167;SDS011;67410;42.698;23.378;2023-12-28T11:17:18;29.90;;;21.17;;
78167;SDS011;67410;42.698;23.378;2023-12-28T11:19:47;33.25;;;20.98;;
78167;SDS011;67410;42.698;23.378;2023-12-28T11:22:15;31.23;;;20.60;;
78167;SDS011;67410;42.698;23.378;2023-12-28T11:24:41;32.10;;;21.60;;
78167;SDS011;67410;42.698;23.378;2023-12-28T11:27:07;35.08;;;21.55;;
78167;SDS011;67410;42.698;23.378;2023-12-28T11:29:34;34.22;;;20.17;;
78167;SDS011;67410;42.698;23.378;2023-12-28T11:32:00;46.55;;;24.60;;
78167;SDS011;67410;42.698;23.378;2023-12-28T11:34:31;34.15;;;20.48;;
78167;SDS011;67410;42.698;23.378;2023-12-28T11:37:06;34.17;;;19.60;;
78167;SDS011;67410;42.698;23.378;2023-12-28T11:39:36;38.58;;;20.83;;
78167;SDS011;67410;42.698;23.378;2023-12-28T11:42:07;42.42;;;21.75;;
78167;SDS011;67410;42.698;23.378;2023-12-28T11:44:38;35.00;;;21.65;;
78167;SDS011;67410;42.698;23.378;2023-12-28T11:49:38;29.63;;;19.15;;
78167;SDS011;67410;42.698;23.378;2023-12-28T11:52:08;34.28;;;19.58;;
78167;SDS011;67410;42.698;23.378;2023-12-28T11:54:36;34.45;;;21.13;;
78167;SDS011;67410;42.698;23.378;2023-12-28T11:57:03;32.80;;;20.25;;
78167;SDS011;67410;42.698;23.378;2023-12-28T11:59:29;38.25;;;20.23;;
78167;SDS011;67410;42.698;23.378;2023-12-28T12:01:56;34.20;;;19.27;;
78167;SDS011;67410;42.698;23.378;2023-12-28T12:04:23;33.90;;;19.23;;
78167;SDS011;67410;42.698;23.378;2023-12-28T12:06:49;33.13;;;19.10;;
78167;SDS011;67410;42.698;23.378;2023-12-28T12:09:18;29.75;;;16.65;;
78167;SDS011;67410;42.698;23.378;2023-12-28T12:11:48;29.15;;;16.67;;
78167;SDS011;67410;42.698;23.378;2023-12-28T12:14:14;31.80;;;18.08;;
78167;SDS011;67410;42.698;23.378;2023-12-28T12:16:40;30.08;;;17.73;;
78167;SDS011;67410;42.698;23.378;2023-12-28T12:19:06;30.73;;;17.17;;
78167;SDS011;67410;42.698;23.378;2023-12-28T12:21:33;32.70;;;19.90;;
78167;SDS011;67410;42.698;23.378;2023-12-28T12:24:01;35.75;;;18.63;;
78167;SDS011;67410;42.698;23.378;2023-12-28T12:26:30;31.75;;;18.15;;
78167;SDS011;67410;42.698;23.378;2023-12-28T12:28:58;32.88;;;19.10;;
78167;SDS011;67410;42.698;23.378;2023-12-28T12:31:24;27.00;;;15.07;;
78167;SDS011;67410;42.698;23.378;2023-12-28T12:33:52;25.30;;;15.27;;
78167;SDS011;67410;42.698;23.378;2023-12-28T12:36:18;23.88;;;14.20;;
78167;SDS011;67410;42.698;23.378;2023-12-28T12:38:44;29.30;;;14.75;;
78167;SDS011;67410;42.698;23.378;2023-12-28T12:41:11;42.13;;;22.10;;
78167;SDS011;67410;42.698;23.378;2023-12-28T12:43:37;33.50;;;19.98;;
78167;SDS011;67410;42.698;23.378;2023-12-28T12:46:04;33.78;;;18.77;;
78167;SDS011;67410;42.698;23.378;2023-12-28T12:48:30;37.15;;;18.85;;
78167;SDS011;67410;42.698;23.378;2023-12-28T12:50:56;33.67;;;18.80;;
78167;SDS011;67410;42.698;23.378;2023-12-28T12:53:22;36.28;;;18.88;;
78167;SDS011;67410;42.698;23.378;2023-12-28T12:55:48;32.75;;;18.98;;
78167;SDS011;67410;42.698;23.378;2023-12-28T12:58:20;38.20;;;19.35;;
78167;SDS011;67410;42.698;23.378;2023-12-28T13:00:48;38.15;;;22.13;;
78167;SDS011;67410;42.698;23.378;2023-12-28T13:03:14;36.15;;;22.05;;
78167;SDS011;67410;42.698;23.378;2023-12-28T13:05:40;41.53;;;20.08;;
78167;SDS011;67410;42.698;23.378;2023-12-28T13:08:09;31.75;;;18.00;;
78167;SDS011;67410;42.698;23.378;2023-12-28T13:10:36;56.55;;;26.23;;
78167;SDS011;67410;42.698;23.378;2023-12-28T13:13:02;50.15;;;24.70;;
78167;SDS011;67410;42.698;23.378;2023-12-28T13:15:32;78.80;;;35.67;;
78167;SDS011;67410;42.698;23.378;2023-12-28T13:17:58;41.08;;;30.95;;
78167;SDS011;67410;42.698;23.378;2023-12-28T13:20:24;34.88;;;17.35;;
78167;SDS011;67410;42.698;23.378;2023-12-28T13:22:50;28.50;;;16.67;;
78167;SDS011;67410;42.698;23.378;2023-12-28T13:25:16;27.65;;;14.38;;
78167;SDS011;67410;42.698;23.378;2023-12-28T13:27:42;30.83;;;15.43;;
78167;SDS011;67410;42.698;23.378;2023-12-28T13:30:09;28.48;;;15.90;;
78167;SDS011;67410;42.698;23.378;2023-12-28T13:32:37;37.67;;;17.63;;
78167;SDS011;67410;42.698;23.378;2023-12-28T13:35:03;29.83;;;15.32;;
78167;SDS011;67410;42.698;23.378;2023-12-28T13:37:30;27.50;;;15.55;;
78167;SDS011;67410;42.698;23.378;2023-12-28T13:39:56;30.50;;;16.08;;
78167;SDS011;67410;42.698;23.378;2023-12-28T13:42:22;31.42;;;16.17;;
78167;SDS011;67410;42.698;23.378;2023-12-28T13:44:48;27.00;;;15.65;;
78167;SDS011;67410;42.698;23.378;2023-12-28T13:47:14;27.80;;;15.90;;
78167;SDS011;67410;42.698;23.378;2023-12-28T13:49:41;28.38;;;15.65;;
78167;SDS011;67410;42.698;23.378;2023-12-28T13:52:07;31.33;;;15.57;;
78167;SDS011;67410;42.698;23.378;2023-12-28T13:54:33;34.42;;;16.98;;
78167;SDS011;67410;42.698;23.378;2023-12-28T13:56:59;33.38;;;18.33;;
78167;SDS011;67410;42.698;23.378;2023-12-28T13:59:26;30.65;;;15.75;;
78167;SDS011;67410;42.698;23.378;2023-12-28T14:01:52;34.22;;;17.45;;
78167;SDS011;67410;42.698;23.378;2023-12-28T14:04:18;34.78;;;16.85;;
78167;SDS011;67410;42.698;23.378;2023-12-28T14:06:44;52.03;;;26.30;;
78167;SDS011;67410;42.698;23.378;2023-12-28T14:09:10;133.00;;;61.42;;
78167;SDS011;67410;42.698;23.378;2023-12-28T14:11:38;38.38;;;18.15;;
78167;SDS011;67410;42.698;23.378;2023-12-28T14:14:04;30.02;;;16.20;;
78167;SDS011;67410;42.698;23.378;2023-12-28T14:16:30;36.03;;;18.63;;